Terminal Aerodrome Forecast
Issued by NWS

Home | Current Version | Previous Version | Text Only | Print | Product List | Glossary On
Versions: 1 2 3 4 5 6 7 8 9 10 11 12 13 14 15 16 17 18
000
FTUS43 KLSX 080400 AAB
TAFSUS
TAF AMD
KSUS 080456Z 0805/0824 17006KT P6SM SCT045 BKN250
     FM080545 29030G45KT 1SM +TSRA OVC015CB
     FM080630 31008G18KT 5SM -TSRA SCT015 OVC035CB
     FM080800 13006KT 6SM -TSRA BR SCT025 OVC080CB
     FM081200 28008KT P6SM SCT025 BKN250=

USA.gov is the U.S. government's official web portal to all federal, state and local government web resources and services.